Time;durP1;ratioP1;P1;durP2;ratioP2;P2;SDS_P1;SDS_P2;PMS_P1;PMS_P2;Temp;Humidity;BMP_temperature;BMP_pressure;BME280_temperature;BME280_humidity;BME280_pressure;Samples;Min_cycle;Max_cycle;Signal;HPM_P1;HPM_P2
2021/04/08 00:01:40;;;;;;;;;;;0.00;92.20;;;;;;5090188;28;19913;-65
2021/04/08 00:04:06;;;;;;;;;;;0.00;92.40;;;;;;5056547;28;19917;-65
2021/04/08 00:06:32;;;;;;;;;;;0.00;92.30;;;;;;5057442;28;20309;-65
2021/04/08 00:08:59;;;;;;;;;;;0.00;92.50;;;;;;5055761;28;19971;-65
2021/04/08 00:11:25;;;;;;;;;;;0.00;92.60;;;;;;5056327;28;19917;-65
2021/04/08 00:13:56;;;;;;;;;;;0.00;93.00;;;;;;5054407;28;20264;-66
2021/04/08 00:16:22;;;;;;;;;;;0.00;93.10;;;;;;5056661;28;19928;-65
2021/04/08 00:18:49;;;;;;;;;;;0.00;93.20;;;;;;5051256;28;19963;-65
2021/04/08 00:21:15;;;;;;;;;;;0.00;93.30;;;;;;5090968;28;20232;-65
2021/04/08 00:23:42;;;;;;;;;;;0.00;93.30;;;;;;5055101;28;19916;-65
2021/04/08 00:26:09;;;;;;;;;;;0.00;93.60;;;;;;5056900;28;19924;-65
2021/04/08 00:28:36;;;;;;;;;;;0.00;93.40;;;;;;5054903;28;19925;-66
2021/04/08 00:31:04;;;;;;;;;;;0.00;93.10;;;;;;5056262;28;19913;-66
2021/04/08 00:33:31;;;;;;;;;;;-0.10;92.90;;;;;;5056993;28;19913;-65
2021/04/08 00:35:56;;;;;;;;;;;-0.10;93.00;;;;;;5057537;28;19920;-65
2021/04/08 00:38:22;;;;;;;;;;;-0.10;92.40;;;;;;5048242;28;20226;-65
2021/04/08 00:40:48;;;;;;;;;;;-0.10;92.20;;;;;;5060345;28;19920;-65
2021/04/08 00:43:14;;;;;;;;;;;-0.10;92.30;;;;;;5057080;28;19970;-65
2021/04/08 00:45:40;;;;;;;;;;;-0.10;92.30;;;;;;5049143;28;20249;-65
2021/04/08 00:48:06;;;;;;;;;;;0.00;91.80;;;;;;5042064;28;19920;-65
2021/04/08 00:50:32;;;;;;;;;;;0.00;91.40;;;;;;5056684;28;19916;-65
2021/04/08 00:52:59;;;;;;;;;;;0.00;91.00;;;;;;5055451;28;19919;-65
2021/04/08 00:55:25;;;;;;;;;;;0.10;91.50;;;;;;5055391;28;19917;-65
2021/04/08 00:57:52;;;;;;;;;;;0.00;91.60;;;;;;5053390;28;19920;-65
2021/04/08 01:00:18;;;;;;;;;;;0.00;91.50;;;;;;5043153;28;20013;-65
2021/04/08 01:02:44;;;;;;;;;;;0.10;91.10;;;;;;5056554;28;20015;-65
2021/04/08 01:05:11;;;;;;;;;;;0.10;91.10;;;;;;5055365;28;19921;-65
2021/04/08 01:07:39;;;;;;;;;;;0.10;90.40;;;;;;5054475;28;19940;-65
2021/04/08 01:10:09;;;;;;;;;;;0.20;90.40;;;;;;5041847;28;20039;-65
2021/04/08 01:12:35;;;;;;;;;;;0.20;90.70;;;;;;5056247;28;19944;-65
2021/04/08 01:15:02;;;;;;;;;;;0.20;90.90;;;;;;5055461;28;19955;-65
2021/04/08 01:17:30;;;;;;;;;;;0.20;90.90;;;;;;5055454;28;19917;-65
2021/04/08 01:20:05;;;;;;;;;;;0.20;91.00;;;;;;5038402;28;19991;-65
2021/04/08 01:22:50;;;;;;;;;;;0.20;90.70;;;;;;5082289;28;19936;-65
2021/04/08 01:25:27;;;;;;;;;;;0.20;90.70;;;;;;5038775;28;19921;-65
2021/04/08 01:28:10;;;;;;;;;;;0.20;90.20;;;;;;5040298;28;19909;-65
2021/04/08 01:30:40;;;;;;;;;;;0.20;90.30;;;;;;5054311;28;19917;-65
2021/04/08 01:33:07;;;;;;;;;;;0.30;89.90;;;;;;5053930;28;20394;-65
2021/04/08 01:35:35;;;;;;;;;;;0.30;90.10;;;;;;5056015;28;19913;-65
2021/04/08 01:38:06;;;;;;;;;;;0.30;90.20;;;;;;5053078;28;20218;-65
2021/04/08 01:40:33;;;;;;;;;;;0.30;90.00;;;;;;5055767;28;19987;-65
2021/04/08 01:43:01;;;;;;;;;;;0.30;89.90;;;;;;5054861;28;19995;-65
2021/04/08 01:45:28;;;;;;;;;;;0.30;90.00;;;;;;5056034;28;19958;-65
2021/04/08 01:47:54;;;;;;;;;;;0.30;90.10;;;;;;5041581;28;19913;-65
2021/04/08 01:50:22;;;;;;;;;;;0.20;90.20;;;;;;5062316;28;19916;-65
2021/04/08 01:52:48;;;;;;;;;;;0.20;90.40;;;;;;5058547;28;20023;-65
2021/04/08 01:55:16;;;;;;;;;;;0.20;90.10;;;;;;5063512;28;20004;-65
2021/04/08 01:57:44;;;;;;;;;;;0.20;90.20;;;;;;5055714;28;19916;-65
2021/04/08 02:00:13;;;;;;;;;;;0.30;89.90;;;;;;5054312;28;19960;-65
2021/04/08 02:02:40;;;;;;;;;;;0.20;90.10;;;;;;5051966;28;19913;-65
2021/04/08 02:05:08;;;;;;;;;;;0.20;90.30;;;;;;5054675;28;19920;-65
2021/04/08 02:07:35;;;;;;;;;;;0.20;90.40;;;;;;5054583;28;20347;-64
2021/04/08 02:10:01;;;;;;;;;;;0.30;90.50;;;;;;5053536;28;19940;-65
2021/04/08 02:12:27;;;;;;;;;;;0.30;90.40;;;;;;5048216;28;19914;-65
2021/04/08 02:14:56;;;;;;;;;;;0.30;90.80;;;;;;5052416;28;19912;-65
2021/04/08 02:17:22;;;;;;;;;;;0.20;90.40;;;;;;5045917;28;19920;-65
2021/04/08 02:19:49;;;;;;;;;;;0.20;90.90;;;;;;5050944;28;20008;-65
2021/04/08 02:22:15;;;;;;;;;;;0.20;91.10;;;;;;5052138;28;20638;-65
2021/04/08 02:24:42;;;;;;;;;;;0.20;90.90;;;;;;5057523;28;19959;-66
2021/04/08 02:27:08;;;;;;;;;;;0.20;91.30;;;;;;5070917;28;19917;-65
2021/04/08 02:29:34;;;;;;;;;;;0.20;91.20;;;;;;5059046;28;19920;-65
2021/04/08 02:32:02;;;;;;;;;;;0.20;91.30;;;;;;5062618;28;19913;-65
2021/04/08 02:34:28;;;;;;;;;;;0.20;91.50;;;;;;5053553;28;19919;-66
2021/04/08 02:36:54;;;;;;;;;;;0.20;91.70;;;;;;5055398;28;20135;-65
2021/04/08 02:39:19;;;;;;;;;;;0.20;91.70;;;;;;5047906;28;19919;-65
2021/04/08 02:41:46;;;;;;;;;;;0.20;91.70;;;;;;5057918;28;19917;-65
2021/04/08 02:44:15;;;;;;;;;;;0.20;91.90;;;;;;5054251;28;19947;-65
2021/04/08 02:46:41;;;;;;;;;;;0.20;92.00;;;;;;5051455;28;20330;-65
2021/04/08 02:49:07;;;;;;;;;;;0.20;92.40;;;;;;5043886;28;19917;-65
2021/04/08 02:51:54;;;;;;;;;;;0.20;92.80;;;;;;5058825;28;19920;-65
2021/04/08 02:54:38;;;;;;;;;;;0.20;93.10;;;;;;5061270;28;19963;-65
2021/04/08 02:57:05;;;;;;;;;;;0.20;93.50;;;;;;5054301;28;19920;-65
2021/04/08 02:59:39;;;;;;;;;;;0.20;93.60;;;;;;5052392;28;19999;-66
2021/04/08 03:02:08;;;;;;;;;;;0.10;94.10;;;;;;5062992;28;19975;-67
2021/04/08 03:04:38;;;;;;;;;;;0.10;94.40;;;;;;5058662;28;19923;-66
2021/04/08 03:07:04;;;;;;;;;;;0.10;94.30;;;;;;5058750;28;19913;-66
2021/04/08 03:09:33;;;;;;;;;;;0.10;94.50;;;;;;5062340;28;19924;-66
2021/04/08 03:12:01;;;;;;;;;;;0.00;94.60;;;;;;5057335;28;20218;-66
2021/04/08 03:14:27;;;;;;;;;;;0.10;94.60;;;;;;5056290;28;19917;-66
2021/04/08 03:16:57;;;;;;;;;;;0.00;94.60;;;;;;5089909;28;19981;-65
2021/04/08 03:19:24;;;;;;;;;;;0.00;94.80;;;;;;5057227;28;19917;-66
2021/04/08 03:21:50;;;;;;;;;;;0.00;94.90;;;;;;5056854;28;19913;-65
2021/04/08 03:24:18;;;;;;;;;;;0.00;94.70;;;;;;5056037;28;19912;-66
2021/04/08 03:26:45;;;;;;;;;;;0.00;94.50;;;;;;5057150;28;19916;-66
2021/04/08 03:29:13;;;;;;;;;;;0.00;94.50;;;;;;5056231;28;19940;-65
2021/04/08 03:31:42;;;;;;;;;;;0.00;94.70;;;;;;5055789;28;19913;-66
2021/04/08 03:34:09;;;;;;;;;;;0.00;94.80;;;;;;5052077;28;19935;-66
2021/04/08 03:36:36;;;;;;;;;;;-0.10;94.90;;;;;;5053393;28;19916;-66
2021/04/08 03:39:05;;;;;;;;;;;-0.10;94.90;;;;;;5037293;28;19913;-65
2021/04/08 03:41:34;;;;;;;;;;;-0.10;94.90;;;;;;5053025;28;19952;-65
2021/04/08 03:44:02;;;;;;;;;;;-0.10;94.90;;;;;;5058101;28;19964;-66
2021/04/08 03:46:27;;;;;;;;;;;0.00;95.10;;;;;;5058137;28;19912;-65
2021/04/08 03:48:54;;;;;;;;;;;0.00;94.90;;;;;;5052862;28;20314;-66
2021/04/08 03:51:21;;;;;;;;;;;-0.10;95.00;;;;;;5056759;28;20353;-65
2021/04/08 03:53:47;;;;;;;;;;;-0.10;95.30;;;;;;5055368;28;19939;-66
2021/04/08 03:56:15;;;;;;;;;;;-0.10;95.30;;;;;;5057813;28;19912;-66
2021/04/08 03:58:41;;;;;;;;;;;-0.10;95.40;;;;;;5056441;28;19920;-66
2021/04/08 04:01:08;;;;;;;;;;;-0.10;95.50;;;;;;5057466;28;19924;-66
2021/04/08 04:03:36;;;;;;;;;;;-0.10;95.70;;;;;;5056225;28;20392;-66
2021/04/08 04:06:02;;;;;;;;;;;-0.10;95.60;;;;;;5057896;28;19912;-66
2021/04/08 04:08:28;;;;;;;;;;;-0.10;95.40;;;;;;5054607;28;20428;-66
2021/04/08 04:10:53;;;;;;;;;;;-0.10;95.60;;;;;;5042584;28;20325;-66
2021/04/08 04:13:19;;;;;;;;;;;-0.10;95.80;;;;;;5055187;28;19920;-66
2021/04/08 04:15:46;;;;;;;;;;;-0.10;95.70;;;;;;5053665;28;19924;-66
2021/04/08 04:18:17;;;;;;;;;;;-0.10;95.80;;;;;;5056472;28;19912;-66
2021/04/08 04:20:46;;;;;;;;;;;-0.10;95.60;;;;;;5050847;28;19913;-66
2021/04/08 04:23:12;;;;;;;;;;;-0.10;95.60;;;;;;5055011;28;19920;-66
2021/04/08 04:25:38;;;;;;;;;;;0.00;95.60;;;;;;5038545;28;19913;-66
2021/04/08 04:28:07;;;;;;;;;;;-0.10;95.60;;;;;;5051285;28;19959;-66
2021/04/08 04:30:34;;;;;;;;;;;0.00;95.80;;;;;;5055968;28;19916;-66
2021/04/08 04:33:00;;;;;;;;;;;0.00;95.60;;;;;;5053482;28;19917;-66
2021/04/08 04:35:26;;;;;;;;;;;0.00;95.70;;;;;;5057532;28;19909;-66
2021/04/08 04:37:52;;;;;;;;;;;0.00;95.90;;;;;;5046972;28;19913;-66
2021/04/08 04:40:18;;;;;;;;;;;0.00;95.90;;;;;;5037509;28;19924;-66
2021/04/08 04:42:46;;;;;;;;;;;0.00;95.90;;;;;;5054248;28;19912;-66
2021/04/08 04:45:14;;;;;;;;;;;0.00;95.70;;;;;;5061090;28;20314;-66
2021/04/08 04:47:40;;;;;;;;;;;0.00;95.90;;;;;;5042353;28;19920;-66
2021/04/08 04:50:07;;;;;;;;;;;0.00;95.80;;;;;;5051931;28;19912;-65
2021/04/08 04:52:33;;;;;;;;;;;-0.10;95.80;;;;;;5046791;28;19913;-65
2021/04/08 04:54:59;;;;;;;;;;;0.00;95.70;;;;;;5039317;28;20347;-66
2021/04/08 04:57:26;;;;;;;;;;;-0.10;95.60;;;;;;5038216;28;19913;-65
2021/04/08 04:59:52;;;;;;;;;;;-0.10;95.30;;;;;;5044051;28;19909;-65
2021/04/08 05:02:18;;;;;;;;;;;-0.10;95.40;;;;;;5045846;28;19919;-65
2021/04/08 05:04:43;;;;;;;;;;;-0.10;95.00;;;;;;5055757;28;19909;-65
2021/04/08 05:07:09;;;;;;;;;;;-0.10;95.20;;;;;;5051754;28;19917;-65
2021/04/08 05:09:35;;;;;;;;;;;-0.10;95.10;;;;;;5060558;28;19917;-66
2021/04/08 05:12:01;;;;;;;;;;;0.00;95.00;;;;;;5056540;28;19967;-65
2021/04/08 05:14:27;;;;;;;;;;;0.00;94.80;;;;;;5057364;28;19908;-66
2021/04/08 05:16:55;;;;;;;;;;;0.00;94.60;;;;;;5056373;28;20304;-65
2021/04/08 05:19:21;;;;;;;;;;;0.00;94.80;;;;;;5054380;28;19983;-65
2021/04/08 05:21:50;;;;;;;;;;;0.00;94.90;;;;;;5056318;28;20333;-65
2021/04/08 05:24:16;;;;;;;;;;;0.00;95.30;;;;;;5054675;28;19919;-65
2021/04/08 05:26:44;;;;;;;;;;;0.00;95.20;;;;;;5055029;28;19975;-65
2021/04/08 05:29:09;;;;;;;;;;;-0.10;95.10;;;;;;5041143;28;20019;-66
2021/04/08 05:31:35;;;;;;;;;;;-0.10;95.00;;;;;;5038070;28;20000;-65
2021/04/08 05:34:01;;;;;;;;;;;-0.10;95.00;;;;;;5046400;28;20195;-65
2021/04/08 05:36:27;;;;;;;;;;;-0.10;95.20;;;;;;5049968;28;20023;-66
2021/04/08 05:38:52;;;;;;;;;;;-0.10;95.10;;;;;;5054532;28;20004;-66
2021/04/08 05:41:19;;;;;;;;;;;0.00;95.10;;;;;;5055130;28;20294;-66
2021/04/08 05:43:45;;;;;;;;;;;0.00;94.50;;;;;;5053663;28;19913;-65
2021/04/08 05:46:12;;;;;;;;;;;0.00;94.20;;;;;;5051437;28;19975;-66
2021/04/08 05:48:38;;;;;;;;;;;0.10;94.50;;;;;;5052455;28;19913;-65
2021/04/08 05:51:04;;;;;;;;;;;0.10;94.40;;;;;;5055747;28;20217;-66
2021/04/08 05:53:30;;;;;;;;;;;0.10;94.40;;;;;;5051721;28;19919;-65
2021/04/08 05:55:56;;;;;;;;;;;0.10;94.50;;;;;;5043706;28;19921;-66
2021/04/08 05:58:22;;;;;;;;;;;0.10;94.50;;;;;;5049349;28;20222;-66
2021/04/08 06:00:47;;;;;;;;;;;0.20;94.40;;;;;;5047026;28;20058;-65
2021/04/08 06:03:14;;;;;;;;;;;0.30;94.30;;;;;;5053965;28;19916;-65
2021/04/08 06:05:40;;;;;;;;;;;0.40;94.30;;;;;;5039813;28;19920;-65
2021/04/08 06:08:06;;;;;;;;;;;0.40;93.50;;;;;;5043104;28;19992;-65
2021/04/08 06:10:32;;;;;;;;;;;0.40;93.30;;;;;;5051383;28;19979;-66
2021/04/08 06:12:58;;;;;;;;;;;0.40;93.10;;;;;;5051934;28;20003;-65
2021/04/08 06:15:24;;;;;;;;;;;0.50;93.00;;;;;;5045283;28;19932;-65
2021/04/08 06:17:50;;;;;;;;;;;0.60;92.40;;;;;;5054799;28;20011;-65
2021/04/08 06:20:16;;;;;;;;;;;0.70;92.10;;;;;;5048947;28;19913;-65
2021/04/08 06:22:41;;;;;;;;;;;0.90;91.50;;;;;;5042377;28;19941;-65
2021/04/08 06:25:09;;;;;;;;;;;0.90;90.70;;;;;;5051281;28;20016;-66
2021/04/08 06:27:35;;;;;;;;;;;0.80;91.50;;;;;;5049645;28;19920;-66
2021/04/08 06:30:02;;;;;;;;;;;0.80;91.80;;;;;;5057316;28;19917;-65
2021/04/08 06:32:28;;;;;;;;;;;0.90;91.90;;;;;;5059525;28;19920;-65
2021/04/08 06:34:54;;;;;;;;;;;1.00;91.60;;;;;;5043920;28;20264;-66
2021/04/08 06:37:20;;;;;;;;;;;1.00;91.60;;;;;;5057397;28;19920;-65
2021/04/08 06:39:46;;;;;;;;;;;1.10;91.30;;;;;;5046277;28;20026;-65
2021/04/08 06:42:14;;;;;;;;;;;1.20;91.10;;;;;;5053604;28;20000;-66
2021/04/08 06:44:40;;;;;;;;;;;1.40;90.50;;;;;;5051034;28;19913;-66
2021/04/08 06:47:07;;;;;;;;;;;1.50;90.10;;;;;;5052760;28;19967;-66
2021/04/08 06:49:36;;;;;;;;;;;1.80;88.70;;;;;;5042107;28;20286;-66
2021/04/08 06:52:01;;;;;;;;;;;1.80;87.60;;;;;;5056607;28;20273;-66
2021/04/08 06:54:28;;;;;;;;;;;1.70;87.90;;;;;;5047060;28;20011;-67
2021/04/08 06:56:54;;;;;;;;;;;1.60;87.80;;;;;;5039769;28;19928;-66
2021/04/08 06:59:20;;;;;;;;;;;1.70;88.20;;;;;;5054618;28;19916;-66
2021/04/08 07:01:46;;;;;;;;;;;1.90;88.70;;;;;;5058021;28;19913;-67
2021/04/08 07:04:13;;;;;;;;;;;2.40;87.40;;;;;;5052763;28;19920;-66
2021/04/08 07:06:39;;;;;;;;;;;2.60;85.00;;;;;;5049365;28;19917;-67
2021/04/08 07:09:07;;;;;;;;;;;2.60;84.10;;;;;;5055472;28;19917;-66
2021/04/08 07:11:35;;;;;;;;;;;2.60;84.80;;;;;;5057200;28;20322;-67
2021/04/08 07:14:01;;;;;;;;;;;2.70;85.10;;;;;;5053887;28;20371;-67
2021/04/08 07:16:26;;;;;;;;;;;2.60;84.20;;;;;;5053975;28;19921;-66
2021/04/08 07:18:53;;;;;;;;;;;2.60;85.00;;;;;;5058237;28;19912;-67
2021/04/08 07:21:20;;;;;;;;;;;2.70;85.90;;;;;;5038871;28;19924;-66
2021/04/08 07:24:06;;;;;;;;;;;2.70;84.50;;;;;;5053121;28;19920;-67
2021/04/08 07:26:31;;;;;;;;;;;2.70;85.10;;;;;;5058784;28;19908;-67
2021/04/08 07:28:57;;;;;;;;;;;2.50;85.40;;;;;;5055964;28;20741;-67
2021/04/08 07:31:23;;;;;;;;;;;2.40;86.20;;;;;;5038647;28;19920;-67
2021/04/08 07:33:53;;;;;;;;;;;2.20;86.60;;;;;;5041891;28;19974;-67
2021/04/08 07:36:25;;;;;;;;;;;2.20;85.60;;;;;;5064739;28;20003;-67
2021/04/08 07:38:50;;;;;;;;;;;2.20;84.70;;;;;;5089443;28;19913;-67
2021/04/08 07:41:23;;;;;;;;;;;2.40;84.80;;;;;;5044614;28;20581;-67
2021/04/08 07:44:03;;;;;;;;;;;2.70;84.40;;;;;;5048536;28;19913;-67
2021/04/08 07:46:44;;;;;;;;;;;3.20;82.50;;;;;;5047103;28;19924;-67
2021/04/08 07:49:25;;;;;;;;;;;3.00;81.40;;;;;;5046722;28;19916;-67
2021/04/08 07:51:51;;;;;;;;;;;2.80;82.70;;;;;;5056475;28;19920;-67
2021/04/08 07:54:21;;;;;;;;;;;2.70;83.30;;;;;;5052106;28;20313;-67
2021/04/08 07:56:49;;;;;;;;;;;2.80;82.40;;;;;;5052781;28;20306;-67
2021/04/08 07:59:26;;;;;;;;;;;2.80;81.90;;;;;;5041223;28;19913;-68
2021/04/08 08:02:00;;;;;;;;;;;2.80;83.00;;;;;;5036929;28;19913;-67
2021/04/08 08:04:26;;;;;;;;;;;2.60;83.00;;;;;;5044246;28;19913;-68
2021/04/08 08:06:53;;;;;;;;;;;2.60;83.00;;;;;;5038032;28;19919;-67
2021/04/08 08:09:20;;;;;;;;;;;2.80;83.30;;;;;;5050329;28;20261;-67
2021/04/08 08:11:46;;;;;;;;;;;2.70;83.70;;;;;;5037996;28;19959;-68
2021/04/08 08:14:12;;;;;;;;;;;2.70;83.60;;;;;;5051948;28;19913;-67
2021/04/08 08:16:37;;;;;;;;;;;2.60;84.00;;;;;;5055202;28;19962;-67
2021/04/08 08:19:03;;;;;;;;;;;2.40;84.60;;;;;;5053739;28;19924;-68
2021/04/08 08:21:35;;;;;;;;;;;2.40;84.60;;;;;;5051018;28;19948;-68
2021/04/08 08:24:04;;;;;;;;;;;2.50;85.20;;;;;;5048616;28;19956;-67
2021/04/08 08:26:33;;;;;;;;;;;2.60;85.20;;;;;;5049478;28;19974;-68
2021/04/08 08:29:00;;;;;;;;;;;2.50;84.20;;;;;;5086545;28;19925;-67
2021/04/08 08:31:41;;;;;;;;;;;2.50;84.10;;;;;;5050170;28;19940;-67
2021/04/08 08:34:10;;;;;;;;;;;2.60;83.80;;;;;;5048765;28;19917;-67
2021/04/08 08:36:39;;;;;;;;;;;2.50;83.70;;;;;;5055852;28;19944;-68
2021/04/08 08:39:08;;;;;;;;;;;2.60;83.50;;;;;;5052106;28;20377;-67
2021/04/08 08:41:35;;;;;;;;;;;2.60;83.30;;;;;;5045032;28;19914;-67
2021/04/08 08:44:02;;;;;;;;;;;2.40;83.70;;;;;;5047382;28;19913;-68
2021/04/08 08:46:30;;;;;;;;;;;2.50;84.30;;;;;;5038268;28;19971;-67
2021/04/08 08:48:56;;;;;;;;;;;2.80;83.50;;;;;;5040923;28;19943;-67
2021/04/08 08:51:22;;;;;;;;;;;2.90;82.90;;;;;;5056959;28;19913;-68
2021/04/08 08:53:50;;;;;;;;;;;2.90;83.10;;;;;;5046695;28;19913;-67
2021/04/08 08:56:16;;;;;;;;;;;3.20;82.10;;;;;;5040626;28;19972;-67
2021/04/08 08:58:42;;;;;;;;;;;3.30;82.50;;;;;;5036951;28;20004;-68
2021/04/08 09:01:07;;;;;;;;;;;3.60;82.10;;;;;;5046754;28;19913;-68
2021/04/08 09:03:34;;;;;;;;;;;3.90;80.90;;;;;;5056047;28;19917;-67
2021/04/08 09:06:04;;;;;;;;;;;4.30;79.30;;;;;;5055070;28;19913;-68
2021/04/08 09:08:31;;;;;;;;;;;4.50;79.30;;;;;;5047424;28;19913;-67
2021/04/08 09:10:57;;;;;;;;;;;4.40;78.80;;;;;;5050198;28;20314;-68
2021/04/08 09:13:23;;;;;;;;;;;4.60;78.60;;;;;;5052425;28;19920;-67
2021/04/08 09:15:50;;;;;;;;;;;4.90;78.10;;;;;;5056310;28;19925;-67
2021/04/08 09:18:20;;;;;;;;;;;5.30;77.30;;;;;;5051229;28;19966;-67
2021/04/08 09:20:47;;;;;;;;;;;5.40;75.80;;;;;;5054730;28;19952;-68
2021/04/08 09:23:13;;;;;;;;;;;5.70;75.20;;;;;;5052036;28;19935;-68
2021/04/08 09:25:48;;;;;;;;;;;6.30;73.80;;;;;;5043934;28;20287;-66
2021/04/08 09:28:15;;;;;;;;;;;6.50;72.90;;;;;;5049336;28;19963;-66
2021/04/08 09:36:22;;;;;;;;;;;6.80;72.00;;;;;;5036512;28;20369;-67
2021/04/08 09:38:59;;;;;;;;;;;7.60;70.90;;;;;;5048404;28;19985;-67
2021/04/08 09:41:45;;;;;;;;;;;8.00;68.50;;;;;;5056263;28;19967;-67
2021/04/08 09:44:11;;;;;;;;;;;8.20;67.40;;;;;;5055082;28;19913;-66
2021/04/08 09:46:40;;;;;;;;;;;8.40;66.00;;;;;;5055776;28;20294;-66
2021/04/08 09:49:06;;;;;;;;;;;8.20;65.70;;;;;;5036750;28;19946;-66
2021/04/08 09:51:33;;;;;;;;;;;7.60;66.90;;;;;;5036187;28;20315;-66
2021/04/08 09:54:01;;;;;;;;;;;7.10;68.70;;;;;;5046299;28;20294;-66
2021/04/08 09:56:58;;;;;;;;;;;6.50;67.80;;;;;;5055284;28;19913;-67
2021/04/08 09:59:27;;;;;;;;;;;7.00;68.60;;;;;;5016545;28;19913;-67
2021/04/08 10:01:52;;;;;;;;;;;7.90;67.80;;;;;;5037842;28;20337;-66
2021/04/08 10:04:22;;;;;;;;;;;9.00;66.60;;;;;;5042216;28;19913;-67
2021/04/08 10:06:58;;;;;;;;;;;9.60;62.50;;;;;;5050294;28;19915;-67
2021/04/08 10:09:24;;;;;;;;;;;9.50;62.00;;;;;;5051742;28;19928;-67
2021/04/08 10:11:50;;;;;;;;;;;9.90;62.00;;;;;;5046227;28;19912;-66
2021/04/08 10:14:23;;;;;;;;;;;9.80;61.60;;;;;;5045257;28;20322;-66
2021/04/08 10:17:03;;;;;;;;;;;9.10;61.00;;;;;;5053810;28;19927;-66
2021/04/08 10:19:33;;;;;;;;;;;7.40;63.80;;;;;;5053547;28;19913;-66
2021/04/08 10:22:00;;;;;;;;;;;6.60;66.80;;;;;;5045461;28;19920;-67
2021/04/08 10:24:32;;;;;;;;;;;5.90;66.20;;;;;;5035417;28;20016;-66
2021/04/08 10:26:58;;;;;;;;;;;5.30;68.40;;;;;;5043487;28;19912;-66
2021/04/08 10:29:31;;;;;;;;;;;5.00;70.40;;;;;;5048529;28;20016;-66
2021/04/08 10:31:57;;;;;;;;;;;4.90;70.70;;;;;;5036053;28;19920;-67
2021/04/08 10:34:31;;;;;;;;;;;4.70;72.50;;;;;;5038077;28;19917;-66
2021/04/08 10:36:58;;;;;;;;;;;4.70;73.10;;;;;;5035477;28;19933;-66
2021/04/08 10:39:50;;;;;;;;;;;4.60;72.80;;;;;;5047795;28;19963;-66
2021/04/08 10:42:16;;;;;;;;;;;4.80;73.70;;;;;;5054042;28;19913;-66
2021/04/08 10:44:47;;;;;;;;;;;5.00;72.70;;;;;;5041826;28;19920;-67
2021/04/08 10:47:14;;;;;;;;;;;5.10;72.20;;;;;;5043725;28;19913;-67
2021/04/08 10:49:40;;;;;;;;;;;5.40;72.00;;;;;;5048373;28;19924;-66
2021/04/08 10:52:07;;;;;;;;;;;5.50;70.20;;;;;;5044640;28;19909;-67
2021/04/08 10:54:34;;;;;;;;;;;5.70;69.60;;;;;;5053887;28;20225;-66
2021/04/08 10:57:00;;;;;;;;;;;6.10;69.60;;;;;;5083996;28;19939;-66
2021/04/08 10:59:29;;;;;;;;;;;6.40;68.70;;;;;;5053816;28;19912;-67
2021/04/08 11:01:55;;;;;;;;;;;6.50;68.70;;;;;;5040547;28;20318;-66
2021/04/08 11:04:22;;;;;;;;;;;6.60;67.10;;;;;;5045102;28;19920;-67
2021/04/08 11:06:50;;;;;;;;;;;8.10;68.00;;;;;;5048642;28;19913;-67
2021/04/08 11:09:26;;;;;;;;;;;8.90;61.50;;;;;;5043581;28;19943;-66
2021/04/08 11:11:54;;;;;;;;;;;8.30;61.40;;;;;;5051392;28;19924;-66
2021/04/08 11:14:22;;;;;;;;;;;7.70;61.50;;;;;;5042763;28;19917;-66
2021/04/08 11:16:50;;;;;;;;;;;6.90;63.40;;;;;;5055662;28;19924;-66
2021/04/08 11:19:16;;;;;;;;;;;6.60;64.30;;;;;;5045174;28;19923;-66
2021/04/08 11:21:42;;;;;;;;;;;6.40;66.20;;;;;;5045210;28;19936;-66
2021/04/08 11:24:09;;;;;;;;;;;6.70;67.30;;;;;;5049015;28;20321;-65
2021/04/08 11:27:00;;;;;;;;;;;7.00;66.60;;;;;;5059655;28;19916;-66
2021/04/08 11:29:28;;;;;;;;;;;7.20;66.10;;;;;;5053702;28;19931;-66
2021/04/08 11:31:57;;;;;;;;;;;7.40;63.70;;;;;;5057205;28;19920;-66
2021/04/08 11:34:23;;;;;;;;;;;7.60;64.50;;;;;;5056572;28;19912;-66
2021/04/08 11:36:54;;;;;;;;;;;8.20;63.50;;;;;;5054495;28;19913;-66
2021/04/08 11:39:24;;;;;;;;;;;8.10;63.40;;;;;;5054486;28;19946;-66
2021/04/08 11:41:50;;;;;;;;;;;7.90;64.70;;;;;;5055801;28;20418;-66
2021/04/08 11:44:34;;;;;;;;;;;8.20;64.20;;;;;;5058255;28;19960;-66
2021/04/08 11:47:09;;;;;;;;;;;8.10;64.50;;;;;;5056026;28;19935;-66
2021/04/08 11:49:41;;;;;;;;;;;7.70;65.00;;;;;;5058396;28;19983;-66
2021/04/08 11:52:11;;;;;;;;;;;7.30;65.20;;;;;;5048957;28;20249;-66
2021/04/08 11:54:55;;;;;;;;;;;7.10;67.90;;;;;;5042431;28;20229;-66
2021/04/08 11:57:20;;;;;;;;;;;7.00;68.30;;;;;;5052396;28;20205;-66
2021/04/08 11:59:46;;;;;;;;;;;7.40;69.40;;;;;;5050966;28;19980;-66
2021/04/08 12:02:12;;;;;;;;;;;7.90;67.30;;;;;;5074843;28;20007;-66
2021/04/08 12:04:46;;;;;;;;;;;7.90;65.40;;;;;;5062797;28;19920;-66
2021/04/08 12:07:12;;;;;;;;;;;8.20;64.70;;;;;;5047490;28;20254;-66
2021/04/08 12:09:38;;;;;;;;;;;8.40;64.40;;;;;;5037908;28;19919;-66
2021/04/08 12:12:04;;;;;;;;;;;8.40;64.30;;;;;;5046943;28;19912;-66
2021/04/08 12:14:30;;;;;;;;;;;8.30;65.10;;;;;;5044877;28;19917;-66
2021/04/08 12:17:07;;;;;;;;;;;8.00;64.70;;;;;;5051780;28;19921;-65
2021/04/08 12:19:32;;;;;;;;;;;7.40;65.00;;;;;;5048148;28;20012;-66
2021/04/08 12:22:03;;;;;;;;;;;7.20;65.00;;;;;;5051946;28;20290;-67
2021/04/08 12:24:29;;;;;;;;;;;7.10;66.30;;;;;;5055017;28;20004;-66
2021/04/08 12:26:54;;;;;;;;;;;7.00;65.50;;;;;;5057310;28;19999;-66
2021/04/08 12:29:20;;;;;;;;;;;6.80;63.90;;;;;;5057414;28;19913;-66
2021/04/08 12:31:47;;;;;;;;;;;7.20;67.80;;;;;;5055606;28;19919;-66
2021/04/08 12:34:12;;;;;;;;;;;8.20;66.30;;;;;;5042990;28;20226;-67
2021/04/08 12:36:38;;;;;;;;;;;8.70;60.50;;;;;;5041813;28;19924;-66
2021/04/08 12:39:04;;;;;;;;;;;8.50;59.50;;;;;;5055939;28;19909;-65
2021/04/08 12:41:29;;;;;;;;;;;7.70;61.90;;;;;;5049100;28;19913;-66
2021/04/08 12:43:55;;;;;;;;;;;7.00;64.80;;;;;;5044916;28;20006;-65
2021/04/08 12:46:20;;;;;;;;;;;6.70;67.00;;;;;;5051567;28;19921;-66
2021/04/08 12:48:46;;;;;;;;;;;7.00;66.30;;;;;;5042466;28;20020;-67
2021/04/08 12:51:11;;;;;;;;;;;7.30;66.00;;;;;;5044263;28;19917;-67
2021/04/08 12:53:37;;;;;;;;;;;7.70;65.20;;;;;;5054585;28;19913;-67
2021/04/08 12:56:02;;;;;;;;;;;7.90;65.40;;;;;;5042430;28;19913;-67
2021/04/08 12:58:28;;;;;;;;;;;8.10;64.90;;;;;;5048924;28;19966;-67
2021/04/08 13:00:53;;;;;;;;;;;8.20;62.60;;;;;;5045712;28;20009;-67
2021/04/08 13:03:19;;;;;;;;;;;8.30;63.70;;;;;;5036728;28;20402;-68
2021/04/08 13:05:45;;;;;;;;;;;8.80;62.70;;;;;;5050101;28;20205;-69
2021/04/08 13:08:11;;;;;;;;;;;9.00;61.80;;;;;;5046742;28;19913;-68
2021/04/08 13:10:37;;;;;;;;;;;9.90;61.60;;;;;;5053983;28;19920;-67
2021/04/08 13:13:04;;;;;;;;;;;9.70;59.50;;;;;;5056431;28;20157;-67
2021/04/08 13:15:29;;;;;;;;;;;8.70;58.40;;;;;;5058597;28;19916;-67
2021/04/08 13:17:58;;;;;;;;;;;8.20;59.40;;;;;;5051714;28;19913;-67
2021/04/08 13:20:24;;;;;;;;;;;7.60;60.50;;;;;;5048679;28;19938;-68
2021/04/08 13:22:50;;;;;;;;;;;7.00;62.10;;;;;;5038874;28;19948;-66
2021/04/08 13:25:19;;;;;;;;;;;7.00;62.90;;;;;;5046045;28;20325;-66
2021/04/08 13:27:45;;;;;;;;;;;7.40;63.40;;;;;;5045093;28;19959;-67
2021/04/08 13:30:12;;;;;;;;;;;7.90;64.70;;;;;;5044333;28;20257;-67
2021/04/08 13:32:37;;;;;;;;;;;8.00;62.00;;;;;;5044760;28;19913;-67
2021/04/08 13:35:03;;;;;;;;;;;7.90;61.70;;;;;;5050313;28;19917;-67
2021/04/08 13:37:29;;;;;;;;;;;8.50;61.40;;;;;;5050007;28;19919;-67
2021/04/08 13:39:54;;;;;;;;;;;8.60;60.60;;;;;;5056060;28;20007;-67
2021/04/08 13:42:20;;;;;;;;;;;8.80;60.80;;;;;;5056253;28;19999;-67
2021/04/08 13:44:46;;;;;;;;;;;9.30;61.00;;;;;;5055844;28;20238;-67
2021/04/08 13:47:12;;;;;;;;;;;9.60;59.40;;;;;;5055332;28;19925;-67
2021/04/08 13:49:37;;;;;;;;;;;10.00;58.80;;;;;;5053147;28;20285;-66
2021/04/08 13:52:03;;;;;;;;;;;9.70;57.50;;;;;;5054727;28;19938;-66
2021/04/08 13:54:28;;;;;;;;;;;9.10;58.30;;;;;;5055028;28;20333;-66
2021/04/08 13:56:54;;;;;;;;;;;8.10;59.70;;;;;;5055049;28;20294;-66
2021/04/08 13:59:20;;;;;;;;;;;8.40;61.00;;;;;;5054770;28;19924;-66
2021/04/08 14:01:46;;;;;;;;;;;9.20;58.70;;;;;;5047914;28;19913;-66
2021/04/08 14:04:12;;;;;;;;;;;9.70;56.60;;;;;;5049476;28;20008;-66
2021/04/08 14:06:38;;;;;;;;;;;10.10;56.70;;;;;;5046566;28;20008;-66
2021/04/08 14:09:07;;;;;;;;;;;10.20;57.20;;;;;;5037201;28;19924;-66
2021/04/08 14:11:33;;;;;;;;;;;9.70;57.70;;;;;;5063540;28;19923;-66
2021/04/08 14:13:59;;;;;;;;;;;10.10;59.50;;;;;;5055802;28;19913;-66
2021/04/08 14:16:25;;;;;;;;;;;10.10;56.20;;;;;;5046859;28;19973;-66
2021/04/08 14:18:51;;;;;;;;;;;10.50;55.90;;;;;;5055272;28;19964;-66
2021/04/08 14:21:16;;;;;;;;;;;10.10;57.00;;;;;;5045115;28;20310;-66
2021/04/08 14:23:42;;;;;;;;;;;10.30;57.30;;;;;;5049777;28;20007;-66
2021/04/08 14:26:07;;;;;;;;;;;10.20;56.90;;;;;;5043843;28;19939;-66
2021/04/08 14:28:33;;;;;;;;;;;9.90;56.50;;;;;;5059709;28;19917;-66
2021/04/08 14:30:58;;;;;;;;;;;10.00;56.60;;;;;;5045374;28;19947;-66
2021/04/08 14:33:25;;;;;;;;;;;10.70;56.80;;;;;;5048564;28;19917;-66
2021/04/08 14:35:51;;;;;;;;;;;10.90;55.00;;;;;;5055110;28;20301;-66
2021/04/08 14:38:16;;;;;;;;;;;11.50;53.60;;;;;;5034626;28;19935;-66